createdAt,value
2019-03-10T00:00:49.347Z,80.00
2019-03-10T00:01:49.523Z,79.05
2019-03-10T00:02:49.597Z,79.05
2019-03-10T00:03:49.726Z,78.96
2019-03-10T00:04:49.851Z,79.05
2019-03-10T00:05:49.975Z,78.77
2019-03-10T00:06:50.104Z,79.14
2019-03-10T00:07:50.263Z,78.38
2019-03-10T00:08:50.387Z,78.00
2019-03-10T00:09:50.507Z,78.48
2019-03-10T00:10:50.676Z,78.00
2019-03-10T00:11:50.765Z,77.72
2019-03-10T00:12:50.885Z,78.00
2019-03-10T00:13:51.027Z,77.91
2019-03-10T00:14:51.146Z,77.15
2019-03-10T00:15:51.291Z,77.15
2019-03-10T00:16:51.411Z,77.24
2019-03-10T00:17:51.537Z,77.15
2019-03-10T00:18:51.673Z,76.86
2019-03-10T00:19:51.806Z,77.05
2019-03-10T00:20:51.933Z,77.15
2019-03-10T00:21:52.067Z,76.67
2019-03-10T00:22:52.190Z,76.96
2019-03-10T00:23:52.320Z,76.67
2019-03-10T00:24:52.448Z,75.81
2019-03-10T00:25:52.571Z,75.91
2019-03-10T00:26:52.689Z,75.81
2019-03-10T00:27:52.826Z,76.10
2019-03-10T00:28:52.935Z,75.53
2019-03-10T00:29:53.062Z,75.43
2019-03-10T00:30:53.186Z,75.72
2019-03-10T00:31:53.344Z,75.81
2019-03-10T00:32:53.483Z,75.62
2019-03-10T00:33:53.583Z,75.62
2019-03-10T00:34:53.720Z,75.53
2019-03-10T00:35:54.499Z,75.62
2019-03-10T00:36:54.025Z,75.53
2019-03-10T00:37:54.163Z,75.53
2019-03-10T00:38:54.289Z,75.62
2019-03-10T00:39:54.405Z,75.05
2019-03-10T00:40:54.540Z,76.01
2019-03-10T00:41:54.695Z,75.53
2019-03-10T00:42:54.887Z,75.43
2019-03-10T00:43:55.005Z,76.01
2019-03-10T00:44:55.124Z,75.91
2019-03-10T00:45:55.280Z,76.10
2019-03-10T00:46:55.414Z,76.01
2019-03-10T00:47:55.551Z,75.81
2019-03-10T00:48:55.674Z,76.39
2019-03-10T00:49:55.791Z,76.39
2019-03-10T00:50:55.920Z,76.48
2019-03-10T00:51:56.053Z,77.24
2019-03-10T00:52:56.164Z,76.96
2019-03-10T00:53:56.292Z,77.43
2019-03-10T00:54:56.442Z,77.72
2019-03-10T00:55:56.572Z,77.81
2019-03-10T00:56:56.700Z,77.05
2019-03-10T00:57:56.829Z,77.81
2019-03-10T00:58:56.963Z,77.72
2019-03-10T00:59:57.087Z,78.38
2019-03-10T01:00:57.212Z,78.29
2019-03-10T01:01:57.333Z,78.19
2019-03-10T01:02:57.495Z,78.29
2019-03-10T01:03:57.600Z,77.81
2019-03-10T01:04:57.727Z,78.29
2019-03-10T01:05:57.859Z,78.29
2019-03-10T01:06:57.986Z,79.05
2019-03-10T01:07:58.111Z,78.86
2019-03-10T01:08:58.234Z,78.67
2019-03-10T01:09:58.403Z,78.96
2019-03-10T01:10:58.515Z,78.67
2019-03-10T01:11:58.641Z,78.67
2019-03-10T01:12:58.768Z,78.86
2019-03-10T01:13:58.938Z,78.29
2019-03-10T01:14:59.046Z,78.77
2019-03-10T01:15:59.172Z,78.10
2019-03-10T01:16:59.304Z,78.38
2019-03-10T01:17:59.455Z,78.48
2019-03-10T01:18:59.592Z,78.48
2019-03-10T01:19:59.715Z,79.05
2019-03-10T01:20:59.847Z,79.24
2019-03-10T01:21:59.964Z,78.96
2019-03-10T01:23:00.090Z,79.14
2019-03-10T01:24:00.220Z,78.67
2019-03-10T01:25:00.354Z,79.05
2019-03-10T01:26:00.480Z,79.39
2019-03-10T01:27:00.596Z,79.52
2019-03-10T01:28:00.728Z,79.62
2019-03-10T01:29:00.841Z,80.10
2019-03-10T01:30:00.998Z,79.91
2019-03-10T01:31:01.101Z,80.66
2019-03-10T01:32:01.242Z,80.38
2019-03-10T01:33:01.369Z,80.19
2019-03-10T01:34:01.484Z,80.29
2019-03-10T01:35:01.611Z,80.38
2019-03-10T01:36:01.739Z,80.00
2019-03-10T01:37:01.862Z,80.66
2019-03-10T01:38:01.983Z,81.01
2019-03-10T01:39:02.115Z,81.58
2019-03-10T01:40:02.236Z,81.33
2019-03-10T01:41:02.373Z,81.33
2019-03-10T01:42:02.485Z,81.81
2019-03-10T01:43:02.610Z,81.71
2019-03-10T01:44:02.731Z,81.38
2019-03-10T01:45:02.903Z,81.81
2019-03-10T01:46:03.018Z,82.24
2019-03-10T01:47:03.131Z,82.43
2019-03-10T01:48:03.262Z,82.19
2019-03-10T01:49:03.382Z,82.48
2019-03-10T01:50:03.495Z,82.38
2019-03-10T01:51:03.659Z,82.28
2019-03-10T01:52:03.777Z,82.38
2019-03-10T01:53:03.905Z,83.10
2019-03-10T01:54:04.063Z,83.10
2019-03-10T01:55:04.152Z,82.81
2019-03-10T01:56:04.275Z,83.10
2019-03-10T01:57:04.396Z,83.58
2019-03-10T01:58:04.516Z,83.58
2019-03-10T01:59:04.640Z,83.58
2019-03-10T02:00:04.767Z,82.95
2019-03-10T02:01:04.886Z,83.29
2019-03-10T02:02:05.038Z,83.76
2019-03-10T02:03:05.164Z,83.67
2019-03-10T02:04:05.292Z,83.95
2019-03-10T02:05:05.411Z,84.43
2019-03-10T02:06:05.555Z,84.81
2019-03-10T02:07:05.674Z,84.72
2019-03-10T02:08:05.801Z,84.91
2019-03-10T02:09:05.930Z,84.81
2019-03-10T02:10:06.048Z,84.81
2019-03-10T02:11:06.188Z,84.62
2019-03-10T02:12:06.317Z,84.91
2019-03-10T02:13:06.432Z,85.10
2019-03-10T02:14:06.571Z,85.38
2019-03-10T02:15:06.737Z,85.19
2019-03-10T02:16:06.818Z,85.57
2019-03-10T02:17:06.952Z,85.00
2019-03-10T02:18:07.070Z,85.28
2019-03-10T02:19:07.215Z,85.38
2019-03-10T02:20:07.319Z,86.05
2019-03-10T02:21:07.441Z,85.76
2019-03-10T02:22:07.565Z,85.66
2019-03-10T02:23:07.698Z,86.33
2019-03-10T02:24:07.817Z,86.61
2019-03-10T02:25:07.948Z,86.43
2019-03-10T02:26:08.068Z,86.71
2019-03-10T02:27:08.192Z,86.33
2019-03-10T02:28:08.319Z,86.80
2019-03-10T02:29:08.443Z,86.61
2019-03-10T02:30:08.568Z,86.99
2019-03-10T02:31:08.696Z,86.90
2019-03-10T02:32:08.858Z,86.38
2019-03-10T02:33:08.942Z,86.33
2019-03-10T02:34:09.089Z,86.47
2019-03-10T02:35:09.208Z,86.99
2019-03-10T02:36:09.332Z,86.52
2019-03-10T02:37:09.462Z,86.47
2019-03-10T02:38:09.595Z,86.66
2019-03-10T02:39:09.720Z,86.28
2019-03-10T02:40:09.841Z,86.85
2019-03-10T02:41:09.962Z,86.52
2019-03-10T02:42:10.096Z,86.66
2019-03-10T02:43:10.217Z,86.47
2019-03-10T02:44:10.354Z,86.57
2019-03-10T02:45:10.492Z,86.18
2019-03-10T02:46:10.623Z,85.71
2019-03-10T02:47:10.738Z,86.18
2019-03-10T02:48:10.862Z,85.90
2019-03-10T02:49:10.994Z,85.80
2019-03-10T02:50:11.116Z,85.90
2019-03-10T02:51:11.241Z,86.47
2019-03-10T02:52:11.384Z,86.09
2019-03-10T02:53:11.490Z,86.38
2019-03-10T02:54:11.661Z,86.09
2019-03-10T02:55:11.790Z,86.09
2019-03-10T02:56:11.925Z,86.18
2019-03-10T02:57:12.049Z,85.71
2019-03-10T02:58:12.168Z,86.09
2019-03-10T02:59:12.341Z,85.80
2019-03-10T03:00:12.457Z,86.47
2019-03-10T03:01:12.575Z,86.28
2019-03-10T03:02:12.714Z,85.99
2019-03-10T03:03:12.838Z,85.90
2019-03-10T03:04:12.996Z,85.33
2019-03-10T03:05:13.077Z,85.33
2019-03-10T03:06:13.206Z,85.71
2019-03-10T03:07:13.329Z,85.33
2019-03-10T03:08:16.643Z,85.61
2019-03-10T03:09:13.573Z,85.24
2019-03-10T03:10:13.705Z,85.33
2019-03-10T03:11:13.830Z,85.33
2019-03-10T03:12:13.960Z,85.14
2019-03-10T03:13:14.094Z,85.24
2019-03-10T03:14:14.213Z,85.14
2019-03-10T03:15:14.343Z,85.14
2019-03-10T03:16:14.473Z,84.19
2019-03-10T03:17:14.593Z,84.76
2019-03-10T03:18:14.719Z,84.38
2019-03-10T03:19:14.839Z,84.56
2019-03-10T03:20:14.967Z,84.19
2019-03-10T03:21:15.090Z,84.09
2019-03-10T03:22:15.221Z,84.00
2019-03-10T03:23:15.347Z,83.71
2019-03-10T03:24:15.472Z,83.90
2019-03-10T03:25:15.595Z,84.00
2019-03-10T03:26:15.724Z,83.42
2019-03-10T03:27:15.850Z,84.09
2019-03-10T03:28:15.979Z,83.52
2019-03-10T03:29:16.106Z,84.28
2019-03-10T03:30:16.243Z,84.00
2019-03-10T03:31:16.354Z,84.38
2019-03-10T03:32:16.514Z,84.95
2019-03-10T03:33:16.623Z,84.47
2019-03-10T03:34:16.761Z,84.47
2019-03-10T03:35:16.874Z,84.38
2019-03-10T03:36:17.009Z,85.14
2019-03-10T03:37:17.134Z,84.00
2019-03-10T03:38:17.260Z,84.19
2019-03-10T03:39:17.483Z,84.09
2019-03-10T03:40:17.540Z,84.19
2019-03-10T03:41:17.661Z,84.95
2019-03-10T03:42:17.786Z,84.66
2019-03-10T03:43:17.913Z,84.19
2019-03-10T03:44:18.045Z,84.28
2019-03-10T03:45:18.178Z,84.00
2019-03-10T03:46:18.307Z,84.56
2019-03-10T03:47:18.430Z,84.28
2019-03-10T03:48:18.574Z,84.85
2019-03-10T03:49:18.712Z,84.66
2019-03-10T03:50:18.833Z,84.66
2019-03-10T03:51:18.954Z,84.56
2019-03-10T03:52:19.126Z,84.47
2019-03-10T03:53:19.218Z,84.47
2019-03-10T03:54:19.353Z,84.66
2019-03-10T03:55:19.467Z,84.28
2019-03-10T03:56:19.619Z,84.28
2019-03-10T03:57:19.734Z,84.09
2019-03-10T03:58:19.869Z,83.81
2019-03-10T03:59:19.992Z,83.71
2019-03-10T04:00:20.139Z,83.62
2019-03-10T04:01:20.255Z,83.62
2019-03-10T04:02:20.362Z,83.52
2019-03-10T04:03:20.511Z,83.90
2019-03-10T04:04:20.742Z,84.00
2019-03-10T04:05:20.843Z,83.90
2019-03-10T04:06:20.913Z,84.00
2019-03-10T04:07:21.028Z,84.00
2019-03-10T04:08:21.219Z,84.09
2019-03-10T04:09:21.275Z,83.52
2019-03-10T04:10:21.404Z,83.71
2019-03-10T04:11:21.532Z,84.00
2019-03-10T04:12:21.674Z,83.71
2019-03-10T04:13:21.798Z,83.62
2019-03-10T04:14:21.922Z,83.52
2019-03-10T04:15:22.047Z,83.33
2019-03-10T04:16:22.180Z,83.62
2019-03-10T04:17:22.302Z,83.33
2019-03-10T04:18:22.429Z,82.95
2019-03-10T04:19:22.560Z,82.95
2019-03-10T04:20:22.721Z,83.14
2019-03-10T04:21:22.835Z,83.23
2019-03-10T04:22:22.957Z,83.04
2019-03-10T04:23:23.097Z,83.90
2019-03-10T04:24:23.220Z,83.52
2019-03-10T04:25:23.350Z,83.52
2019-03-10T04:26:23.471Z,83.14
2019-03-10T04:27:23.649Z,84.00
2019-03-10T04:28:23.753Z,83.71
2019-03-10T04:29:23.880Z,83.81
2019-03-10T04:30:24.007Z,83.90
2019-03-10T04:31:24.134Z,83.52
2019-03-10T04:32:24.266Z,83.52
2019-03-10T04:33:24.387Z,83.71
2019-03-10T04:34:24.523Z,83.52
2019-03-10T04:35:24.645Z,83.81
2019-03-10T04:36:24.765Z,83.42
2019-03-10T04:37:24.893Z,83.04
2019-03-10T04:38:25.041Z,83.33
2019-03-10T04:39:25.159Z,84.00
2019-03-10T04:40:25.286Z,83.23
2019-03-10T04:41:25.413Z,83.23
2019-03-10T04:42:25.540Z,82.19
2019-03-10T04:43:25.674Z,81.14
2019-03-10T04:44:25.788Z,80.95
2019-03-10T04:45:25.915Z,81.81
2019-03-10T04:46:26.065Z,82.09
2019-03-10T04:47:26.206Z,81.90
2019-03-10T04:48:26.319Z,81.90
2019-03-10T04:49:26.487Z,81.24
2019-03-10T04:50:26.577Z,82.19
2019-03-10T04:51:26.700Z,82.38
2019-03-10T04:52:26.826Z,82.95
2019-03-10T04:53:26.949Z,82.67
2019-03-10T04:54:27.088Z,82.76
2019-03-10T04:55:27.225Z,82.57
2019-03-10T04:56:27.344Z,83.14
2019-03-10T04:57:27.560Z,82.76
2019-03-10T04:58:27.554Z,83.04
2019-03-10T04:59:27.681Z,82.86
2019-03-10T05:00:27.814Z,83.04
2019-03-10T05:01:27.959Z,83.04
2019-03-10T05:02:28.087Z,83.71
2019-03-10T05:03:28.219Z,83.23
2019-03-10T05:04:28.351Z,83.42
2019-03-10T05:05:28.476Z,83.62
2019-03-10T05:06:28.599Z,83.90
2019-03-10T05:07:28.728Z,84.00
2019-03-10T05:08:28.847Z,84.09
2019-03-10T05:09:28.981Z,84.19
2019-03-10T05:10:29.101Z,85.24
2019-03-10T05:11:29.236Z,85.04
2019-03-10T05:12:29.354Z,85.10
2019-03-10T05:13:29.478Z,85.52
2019-03-10T05:14:29.603Z,85.95
2019-03-10T05:15:29.720Z,86.18
2019-03-10T05:16:29.853Z,86.43
2019-03-10T05:17:29.982Z,86.61
2019-03-10T05:18:30.104Z,86.71
2019-03-10T05:19:30.235Z,86.71
2019-03-10T05:20:30.364Z,86.24
2019-03-10T05:21:30.495Z,86.71
2019-03-10T05:22:30.614Z,86.71
2019-03-10T05:23:30.774Z,86.43
2019-03-10T05:24:30.890Z,86.99
2019-03-10T05:25:31.026Z,86.43
2019-03-10T05:26:31.154Z,86.80
2019-03-10T05:27:31.295Z,87.28
2019-03-10T05:28:31.417Z,87.76
2019-03-10T05:29:31.544Z,86.61
2019-03-10T05:30:31.674Z,86.61
2019-03-10T05:31:31.794Z,86.57
2019-03-10T05:32:31.920Z,86.38
2019-03-10T05:33:32.050Z,87.28
2019-03-10T05:34:32.173Z,87.34
2019-03-10T05:35:32.304Z,87.90
2019-03-10T05:36:32.430Z,88.19
2019-03-10T05:37:32.552Z,89.04
2019-03-10T05:38:32.681Z,89.33
2019-03-10T05:39:32.814Z,89.33
2019-03-10T05:40:32.949Z,89.33
2019-03-10T05:41:33.079Z,88.85
2019-03-10T05:42:33.245Z,89.23
2019-03-10T05:43:33.358Z,88.76
2019-03-10T05:44:33.486Z,89.71
2019-03-10T05:45:33.608Z,90.28
2019-03-10T05:46:33.736Z,90.28
2019-03-10T05:47:33.858Z,90.19
2019-03-10T05:48:33.991Z,90.75
2019-03-10T05:49:34.123Z,90.85
2019-03-10T05:50:34.259Z,91.04
2019-03-10T05:51:34.379Z,91.33
2019-03-10T05:52:34.503Z,92.27
2019-03-10T05:53:34.639Z,92.46
2019-03-10T05:54:34.769Z,92.75
2019-03-10T05:55:34.890Z,92.85
2019-03-10T05:56:35.017Z,92.56
2019-03-10T05:57:35.165Z,92.46
2019-03-10T05:58:35.508Z,92.94
2019-03-10T05:59:35.408Z,93.41
2019-03-10T06:00:42.666Z,93.60
2019-03-10T06:01:35.678Z,93.79
2019-03-10T06:02:35.811Z,94.56
2019-03-10T06:03:35.943Z,94.46
2019-03-10T06:04:36.080Z,94.18
2019-03-10T06:05:36.200Z,93.89
2019-03-10T06:06:36.329Z,93.23
2019-03-10T06:07:36.457Z,93.60
2019-03-10T06:08:36.585Z,93.13
2019-03-10T06:09:36.713Z,93.89
2019-03-10T06:10:36.836Z,94.74
2019-03-10T06:11:36.973Z,94.46
2019-03-10T06:12:37.095Z,94.37
2019-03-10T06:13:37.225Z,94.84
2019-03-10T06:14:37.352Z,95.79
2019-03-10T06:15:37.482Z,95.70
2019-03-10T06:16:37.600Z,95.41
2019-03-10T06:17:37.778Z,95.03
2019-03-10T06:18:37.900Z,95.22
2019-03-10T06:19:38.024Z,94.93
2019-03-10T06:20:38.149Z,95.65
2019-03-10T06:21:38.276Z,95.89
2019-03-10T06:22:38.402Z,95.60
2019-03-10T06:23:38.531Z,95.55
2019-03-10T06:24:38.675Z,95.55
2019-03-10T06:25:38.808Z,96.36
2019-03-10T06:26:38.929Z,95.65
2019-03-10T06:27:39.063Z,95.46
2019-03-10T06:28:39.182Z,95.65
2019-03-10T06:29:39.306Z,95.17
2019-03-10T06:30:39.449Z,94.98
2019-03-10T06:31:39.568Z,94.98
2019-03-10T06:32:39.696Z,94.89
2019-03-10T06:33:39.813Z,94.51
2019-03-10T06:34:39.950Z,95.27
2019-03-10T06:35:40.078Z,94.70
2019-03-10T06:36:40.205Z,95.75
2019-03-10T06:37:40.334Z,95.17
2019-03-10T06:38:40.480Z,95.65
2019-03-10T06:39:40.607Z,95.27
2019-03-10T06:40:40.729Z,94.98
2019-03-10T06:41:40.850Z,95.27
2019-03-10T06:42:41.104Z,95.46
2019-03-10T06:43:41.111Z,95.27
2019-03-10T06:44:41.236Z,95.46
2019-03-10T06:45:41.366Z,95.27
2019-03-10T06:46:41.528Z,95.36
2019-03-10T06:47:41.656Z,95.27
2019-03-10T06:48:41.785Z,95.70
2019-03-10T06:49:41.909Z,95.89
2019-03-10T06:50:42.035Z,95.79
2019-03-10T06:51:42.157Z,95.22
2019-03-10T06:52:42.301Z,95.41
2019-03-10T06:53:42.423Z,95.70
2019-03-10T06:54:42.549Z,95.12
2019-03-10T06:55:42.670Z,95.03
2019-03-10T06:56:42.828Z,95.12
2019-03-10T06:57:42.948Z,95.32
2019-03-10T06:58:43.079Z,95.22
2019-03-10T06:59:43.208Z,95.12
2019-03-10T07:00:43.353Z,95.22
2019-03-10T07:01:43.476Z,94.93
2019-03-10T07:02:43.613Z,94.93
2019-03-10T07:03:43.763Z,95.12
2019-03-10T07:04:43.889Z,95.22
2019-03-10T07:05:44.020Z,93.99
2019-03-10T07:06:44.135Z,94.27
2019-03-10T07:07:44.265Z,94.08
2019-03-10T07:08:44.389Z,94.08
2019-03-10T07:09:44.523Z,94.37
2019-03-10T07:10:44.641Z,93.70
2019-03-10T07:11:44.788Z,93.32
2019-03-10T07:12:44.925Z,93.41
2019-03-10T07:13:45.038Z,93.89
2019-03-10T07:14:45.159Z,94.27
2019-03-10T07:15:45.296Z,94.27
2019-03-10T07:16:45.418Z,94.08
2019-03-10T07:17:45.549Z,94.51
2019-03-10T07:18:45.687Z,93.46
2019-03-10T07:19:45.814Z,93.75
2019-03-10T07:20:45.942Z,93.84
2019-03-10T07:21:46.069Z,94.03
2019-03-10T07:22:46.209Z,93.65
2019-03-10T07:23:46.332Z,93.08
2019-03-10T07:24:46.458Z,93.08
2019-03-10T07:25:46.592Z,92.89
2019-03-10T07:26:46.733Z,93.08
2019-03-10T07:27:46.857Z,93.18
2019-03-10T07:28:46.973Z,93.27
2019-03-10T07:29:47.105Z,93.37
2019-03-10T07:30:47.265Z,92.61
2019-03-10T07:31:47.385Z,92.51
2019-03-10T07:32:47.515Z,92.80
2019-03-10T07:33:47.641Z,93.27
2019-03-10T07:34:47.782Z,92.80
2019-03-10T07:35:47.907Z,93.08
2019-03-10T07:36:48.036Z,92.61
2019-03-10T07:37:48.189Z,93.18
2019-03-10T07:38:48.304Z,93.08
2019-03-10T07:39:48.440Z,93.75
2019-03-10T07:40:48.560Z,93.94
2019-03-10T07:41:48.719Z,93.84
2019-03-10T07:42:48.830Z,93.65
2019-03-10T07:43:48.961Z,93.65
2019-03-10T07:44:49.094Z,93.84
2019-03-10T07:45:49.228Z,93.75
2019-03-10T07:46:49.346Z,94.03
2019-03-10T07:47:49.487Z,93.65
2019-03-10T07:48:49.609Z,93.84
2019-03-10T07:49:49.739Z,94.42
2019-03-10T07:50:49.869Z,93.46
2019-03-10T07:51:49.994Z,94.42
2019-03-10T07:52:50.111Z,94.03
2019-03-10T07:53:50.268Z,94.13
2019-03-10T07:54:50.391Z,94.32
2019-03-10T07:55:50.516Z,94.22
2019-03-10T07:56:50.645Z,93.46
2019-03-10T07:57:50.769Z,94.13
2019-03-10T07:58:50.898Z,93.75
2019-03-10T07:59:51.025Z,93.65
2019-03-10T08:00:51.151Z,93.75
2019-03-10T08:01:51.282Z,93.65
2019-03-10T08:02:51.414Z,93.55
2019-03-10T08:03:51.545Z,94.03
2019-03-10T08:04:51.672Z,94.79
2019-03-10T08:05:51.800Z,95.36
2019-03-10T08:06:51.925Z,95.08
2019-03-10T08:07:52.058Z,95.56
2019-03-10T08:08:52.185Z,95.56
2019-03-10T08:09:52.340Z,95.84
2019-03-10T08:10:52.465Z,96.31
2019-03-10T08:11:52.600Z,96.12
2019-03-10T08:12:52.730Z,95.65
2019-03-10T08:13:52.838Z,95.75
2019-03-10T08:14:52.968Z,95.84
2019-03-10T08:15:53.093Z,96.03
2019-03-10T08:16:53.223Z,95.56
2019-03-10T08:17:53.341Z,96.12
2019-03-10T08:18:53.471Z,95.60
2019-03-10T08:19:53.599Z,95.60
2019-03-10T08:20:53.752Z,95.41
2019-03-10T08:21:53.869Z,95.22
2019-03-10T08:22:53.998Z,94.84
2019-03-10T08:23:54.129Z,95.22
2019-03-10T08:24:54.261Z,95.03
2019-03-10T08:25:54.384Z,95.03
2019-03-10T08:26:54.511Z,94.93
2019-03-10T08:28:01.474Z,94.65
2019-03-10T08:28:54.766Z,94.84
2019-03-10T08:29:54.884Z,94.93
2019-03-10T08:30:55.010Z,94.37
2019-03-10T08:31:55.140Z,94.18
2019-03-10T08:32:55.277Z,94.56
2019-03-10T08:33:55.394Z,94.27
2019-03-10T08:34:55.522Z,94.27
2019-03-10T08:35:55.641Z,94.56
2019-03-10T08:36:55.778Z,94.18
2019-03-10T08:37:55.971Z,94.18
2019-03-10T08:38:55.968Z,94.18
2019-03-10T08:39:56.095Z,94.37
2019-03-10T08:40:56.223Z,94.08
2019-03-10T08:41:56.352Z,94.27
2019-03-10T08:42:56.493Z,94.56
2019-03-10T08:43:56.616Z,94.27
2019-03-10T08:44:56.746Z,94.08
2019-03-10T08:45:56.863Z,94.27
2019-03-10T08:46:56.982Z,94.37
2019-03-10T08:47:58.187Z,94.18
2019-03-10T08:48:57.233Z,94.37
2019-03-10T08:49:57.360Z,94.37
2019-03-10T08:50:57.518Z,94.93
2019-03-10T08:51:57.645Z,94.84
2019-03-10T08:52:57.770Z,95.32
2019-03-10T08:53:57.897Z,95.32
2019-03-10T08:54:58.029Z,95.41
2019-03-10T08:55:58.272Z,94.93
2019-03-10T08:56:58.272Z,95.51
2019-03-10T08:57:58.402Z,95.12
2019-03-10T08:58:58.530Z,94.93
2019-03-10T08:59:58.652Z,95.51
2019-03-10T09:00:58.784Z,95.22
2019-03-10T09:01:58.913Z,95.12
2019-03-10T09:02:59.053Z,95.22
2019-03-10T09:03:59.170Z,95.12
2019-03-10T09:04:59.311Z,94.93
2019-03-10T09:05:59.438Z,95.41
2019-03-10T09:06:59.583Z,95.22
2019-03-10T09:07:59.705Z,95.41
2019-03-10T09:08:59.844Z,95.12
2019-03-10T09:09:59.993Z,95.32
2019-03-10T09:11:00.117Z,95.17
2019-03-10T09:12:00.243Z,95.22
2019-03-10T09:13:00.377Z,95.32
2019-03-10T09:14:00.523Z,95.12
2019-03-10T09:15:00.649Z,95.32
2019-03-10T09:16:00.775Z,95.41
2019-03-10T09:17:00.903Z,95.27
2019-03-10T09:18:01.043Z,95.27
2019-03-10T09:19:01.168Z,95.36
2019-03-10T09:20:01.293Z,94.89
2019-03-10T09:21:01.435Z,95.17
2019-03-10T09:22:01.588Z,95.36
2019-03-10T09:23:01.702Z,95.36
2019-03-10T09:24:01.833Z,95.46
2019-03-10T09:25:01.962Z,94.98
2019-03-10T09:26:02.135Z,95.17
2019-03-10T09:27:02.259Z,95.27
2019-03-10T09:28:02.392Z,95.36
2019-03-10T09:29:02.520Z,95.36
2019-03-10T09:30:02.663Z,95.36
2019-03-10T09:31:02.788Z,95.46
2019-03-10T09:32:02.905Z,95.27
2019-03-10T09:33:03.034Z,95.27
2019-03-10T09:34:03.161Z,95.36
2019-03-10T09:35:03.288Z,95.27
2019-03-10T09:36:03.424Z,95.32
2019-03-10T09:37:03.572Z,95.08
2019-03-10T09:38:04.016Z,95.36
2019-03-10T09:39:03.824Z,94.89
2019-03-10T09:40:03.959Z,95.27
2019-03-10T09:41:04.088Z,95.36
2019-03-10T09:42:04.219Z,94.98
2019-03-10T09:43:04.345Z,95.36
2019-03-10T09:44:04.470Z,95.46
2019-03-10T09:45:04.601Z,95.94
2019-03-10T09:46:04.767Z,95.84
2019-03-10T09:47:04.963Z,96.22
2019-03-10T09:48:04.974Z,96.12
2019-03-10T09:49:05.110Z,96.12
2019-03-10T09:50:05.285Z,95.65
2019-03-10T09:51:05.445Z,96.12
2019-03-10T09:52:05.549Z,95.60
2019-03-10T09:53:05.672Z,95.65
2019-03-10T09:54:05.834Z,95.75
2019-03-10T09:55:05.963Z,95.94
2019-03-10T09:56:06.088Z,95.75
2019-03-10T09:57:06.217Z,95.84
2019-03-10T09:58:06.376Z,95.46
2019-03-10T09:59:06.497Z,95.75
2019-03-10T10:00:06.652Z,96.12
2019-03-10T10:01:06.789Z,95.94
2019-03-10T10:02:06.906Z,95.65
2019-03-10T10:03:07.032Z,95.65
2019-03-10T10:04:07.178Z,96.03
2019-03-10T10:05:07.308Z,95.84
2019-03-10T10:06:07.477Z,95.94
2019-03-10T10:07:07.637Z,96.41
2019-03-10T10:08:07.751Z,95.84
2019-03-10T10:09:07.879Z,96.41
2019-03-10T10:10:08.019Z,96.70
2019-03-10T10:11:08.185Z,96.41
2019-03-10T10:12:13.396Z,96.60
2019-03-10T10:13:08.439Z,96.60
2019-03-10T10:14:08.567Z,96.41
2019-03-10T10:15:08.734Z,95.84
2019-03-10T10:16:08.861Z,96.36
2019-03-10T10:17:08.982Z,96.17
2019-03-10T10:18:09.107Z,96.84
2019-03-10T10:19:09.268Z,96.65
2019-03-10T10:20:09.391Z,97.31
2019-03-10T10:21:09.635Z,96.84
2019-03-10T10:22:09.678Z,96.94
2019-03-10T10:23:09.801Z,96.89
2019-03-10T10:24:09.950Z,97.03
2019-03-10T10:25:10.091Z,96.60
2019-03-10T10:26:11.055Z,97.60
2019-03-10T10:27:10.363Z,97.51
2019-03-10T10:28:10.484Z,97.41
2019-03-10T10:29:10.642Z,96.94
2019-03-10T10:30:10.774Z,97.36
2019-03-10T10:31:10.916Z,96.89
2019-03-10T10:32:11.036Z,97.27
2019-03-10T10:33:11.170Z,97.65
2019-03-10T10:34:11.300Z,98.50
2019-03-10T10:35:11.427Z,99.36
2019-03-10T10:36:11.562Z,99.74
2019-03-10T10:37:11.713Z,99.74
2019-03-10T10:38:18.749Z,99.99
2019-03-10T10:39:11.972Z,99.99
2019-03-10T10:40:12.090Z,99.84
2019-03-10T10:41:12.279Z,99.99
2019-03-10T10:42:12.405Z,99.99
2019-03-10T10:43:12.547Z,99.99
2019-03-10T10:44:12.688Z,99.99
2019-03-10T10:45:12.821Z,99.99
2019-03-10T10:46:12.957Z,99.99
2019-03-10T10:47:13.091Z,99.99
2019-03-10T10:48:13.264Z,99.99
2019-03-10T10:49:13.386Z,99.99
2019-03-10T10:50:13.939Z,99.99
2019-03-10T10:51:13.637Z,99.99
2019-03-10T10:52:13.832Z,99.99
2019-03-10T10:53:13.903Z,99.99
2019-03-10T10:54:14.060Z,99.99
2019-03-10T10:55:14.186Z,99.99
2019-03-10T10:56:14.338Z,99.99
2019-03-10T10:57:14.468Z,99.99
2019-03-10T10:58:14.573Z,99.99
2019-03-10T10:59:14.742Z,99.99
2019-03-10T11:00:14.895Z,99.99
2019-03-10T11:01:15.018Z,99.99
2019-03-10T11:02:15.153Z,99.99
2019-03-10T11:03:15.294Z,99.99
2019-03-10T11:04:15.439Z,99.99
2019-03-10T11:05:15.619Z,99.99
2019-03-10T11:06:15.628Z,99.99
2019-03-10T11:07:15.761Z,99.99
2019-03-10T11:08:15.907Z,99.99
2019-03-10T11:09:16.038Z,99.99
2019-03-10T11:10:16.161Z,99.99
2019-03-10T11:11:16.312Z,99.99
2019-03-10T11:12:16.462Z,99.99
2019-03-10T11:13:16.593Z,99.99
2019-03-10T11:14:16.724Z,99.99
2019-03-10T11:15:16.861Z,99.90
2019-03-10T11:16:17.016Z,99.99
2019-03-10T11:17:17.144Z,99.99
2019-03-10T11:18:17.274Z,99.99
2019-03-10T11:19:17.412Z,99.99
2019-03-10T11:20:17.546Z,99.99
2019-03-10T11:21:17.693Z,99.32
2019-03-10T11:22:17.831Z,99.80
2019-03-10T11:23:17.957Z,99.71
2019-03-10T11:24:18.124Z,99.52
2019-03-10T11:25:18.240Z,98.52
2019-03-10T11:26:18.395Z,97.71
2019-03-10T11:27:18.522Z,97.32
2019-03-10T11:28:18.676Z,96.27
2019-03-10T11:29:18.852Z,95.32
2019-03-10T11:30:18.999Z,95.89
2019-03-10T11:31:19.123Z,94.93
2019-03-10T11:32:19.274Z,94.74
2019-03-10T11:33:19.393Z,93.60
2019-03-10T11:34:19.527Z,93.21
2019-03-10T11:35:19.650Z,92.49
2019-03-10T11:36:19.800Z,90.01
2019-03-10T11:37:19.931Z,89.10
2019-03-10T11:38:20.070Z,90.25
2019-03-10T11:39:20.198Z,91.39
2019-03-10T11:40:20.356Z,92.02
2019-03-10T11:41:20.480Z,91.54
2019-03-10T11:42:20.616Z,92.02
2019-03-10T11:43:22.718Z,92.21
2019-03-10T11:44:20.913Z,92.50
2019-03-10T11:45:21.113Z,92.16
2019-03-10T11:46:21.118Z,92.26
2019-03-10T11:47:21.253Z,93.21
2019-03-10T11:48:21.459Z,92.16
2019-03-10T11:49:21.549Z,91.88
2019-03-10T11:50:21.680Z,91.78
2019-03-10T11:51:21.807Z,90.83
2019-03-10T11:52:21.974Z,92.07
2019-03-10T11:53:22.103Z,91.69
2019-03-10T11:54:22.245Z,91.69
2019-03-10T11:55:22.399Z,91.88
2019-03-10T11:56:22.541Z,92.07
2019-03-10T11:57:22.732Z,92.83
2019-03-10T11:58:22.744Z,92.93
2019-03-10T11:59:22.854Z,92.93
2019-03-10T12:00:23.029Z,94.46
2019-03-10T12:01:23.269Z,94.36
2019-03-10T12:02:23.279Z,94.93
2019-03-10T12:03:23.409Z,94.93
2019-03-10T12:04:23.570Z,95.79
2019-03-10T12:05:23.706Z,95.61
2019-03-10T12:06:23.832Z,95.98
2019-03-10T12:07:23.968Z,95.79
2019-03-10T12:08:24.147Z,95.32
2019-03-10T12:09:24.349Z,95.36
2019-03-10T12:10:24.345Z,95.17
2019-03-10T12:11:24.460Z,94.70
2019-03-10T12:12:24.636Z,95.32
2019-03-10T12:13:24.786Z,95.03
2019-03-10T12:14:24.903Z,93.79
2019-03-10T12:15:25.054Z,94.46
2019-03-10T12:16:25.187Z,93.93
2019-03-10T12:17:25.328Z,92.93
2019-03-10T12:18:25.476Z,91.30
2019-03-10T12:19:25.597Z,91.83
2019-03-10T12:20:25.774Z,91.88
2019-03-10T12:21:25.902Z,91.06
2019-03-10T12:22:26.056Z,90.88
2019-03-10T12:23:26.178Z,91.45
2019-03-10T12:24:26.322Z,91.93
2019-03-10T12:25:26.457Z,91.83
2019-03-10T12:26:26.575Z,92.40
2019-03-10T12:27:26.748Z,93.26
2019-03-10T12:28:26.868Z,93.45
2019-03-10T12:29:27.019Z,91.74
2019-03-10T12:30:27.136Z,91.83
2019-03-10T12:31:27.291Z,92.74
2019-03-10T12:32:27.413Z,93.79
2019-03-10T12:33:27.541Z,94.46
2019-03-10T12:34:27.674Z,95.89
2019-03-10T12:35:34.332Z,95.70
2019-03-10T12:36:27.965Z,95.70
2019-03-10T12:37:28.072Z,95.56
2019-03-10T12:38:28.194Z,96.22
2019-03-10T12:39:28.338Z,96.32
2019-03-10T12:40:28.470Z,96.17
2019-03-10T12:41:28.605Z,95.79
2019-03-10T12:42:28.745Z,95.79
2019-03-10T12:43:28.897Z,94.93
2019-03-10T12:44:30.691Z,94.60
2019-03-10T12:45:29.141Z,94.03
2019-03-10T12:46:29.291Z,94.27
2019-03-10T12:47:29.419Z,94.17
2019-03-10T12:48:29.537Z,92.30
2019-03-10T12:49:29.697Z,89.20
2019-03-10T12:50:29.833Z,87.04
2019-03-10T12:51:30.009Z,84.97
2019-03-10T12:52:30.113Z,82.53
2019-03-10T12:53:30.249Z,81.48
2019-03-10T12:54:30.391Z,82.30